Time;durP1;ratioP1;P1;durP2;ratioP2;P2;SDS_P1;SDS_P2;PMS_P1;PMS_P2;Temp;Humidity;BMP_temperature;BMP_pressure;BME280_temperature;BME280_humidity;BME280_pressure;Samples;Min_cycle;Max_cycle;Signal;HPM_P1;HPM_P2
2023/10/11 00:01:38;;;;;;;4.15;2.40;;;23.40;99.90;;;;;;5055860;28;20650;-88
2023/10/11 00:04:23;;;;;;;9.80;2.90;;;23.20;99.90;;;;;;5054514;28;20194;-88
2023/10/11 00:06:54;;;;;;;6.20;3.00;;;22.80;99.90;;;;;;5053927;28;20241;-87
2023/10/11 00:09:34;;;;;;;6.97;3.50;;;22.60;99.90;;;;;;5054841;28;20637;-87
2023/10/11 00:12:06;;;;;;;6.13;3.17;;;22.50;99.90;;;;;;5056585;28;20189;-87
2023/10/11 00:14:39;;;;;;;6.75;3.70;;;22.60;99.90;;;;;;5072468;28;20603;-88
2023/10/11 00:17:10;;;;;;;5.55;3.75;;;22.60;99.90;;;;;;5075067;28;20193;-86
2023/10/11 00:19:42;;;;;;;6.80;3.95;;;22.60;99.90;;;;;;5062392;28;20194;-85
2023/10/11 00:22:14;;;;;;;5.80;4.07;;;22.90;99.90;;;;;;5053553;28;20229;-86
2023/10/11 00:24:44;;;;;;;7.15;4.30;;;23.30;99.90;;;;;;5053538;28;20201;-83
2023/10/11 00:27:22;;;;;;;6.57;4.45;;;23.70;99.90;;;;;;5053595;28;20597;-78
2023/10/11 00:29:55;;;;;;;6.43;3.90;;;24.10;99.90;;;;;;5053246;28;20185;-79
2023/10/11 00:32:26;;;;;;;6.47;4.07;;;24.40;99.90;;;;;;5053576;28;20547;-82
2023/10/11 00:34:58;;;;;;;6.18;3.47;;;24.50;99.90;;;;;;5054426;28;20222;-82
2023/10/11 00:37:31;;;;;;;5.13;3.83;;;24.40;99.90;;;;;;5052827;28;20263;-83
2023/10/11 00:40:04;;;;;;;5.35;3.75;;;24.60;99.90;;;;;;5053188;28;20220;-83
2023/10/11 00:42:35;;;;;;;7.60;4.93;;;24.90;99.90;;;;;;5065861;28;20189;-83
2023/10/11 00:45:09;;;;;;;6.75;5.40;;;25.00;99.90;;;;;;5073711;28;20197;-84
2023/10/11 00:47:45;;;;;;;7.60;4.03;;;25.00;99.90;;;;;;5074009;28;20188;-83
2023/10/11 00:50:16;;;;;;;6.25;3.30;;;24.60;99.90;;;;;;5074226;28;20200;-80
2023/10/11 00:52:47;;;;;;;6.25;3.83;;;24.40;99.90;;;;;;5073716;28;20185;-80
2023/10/11 00:55:21;;;;;;;7.22;3.70;;;24.60;99.90;;;;;;5073530;28;20196;-83
2023/10/11 00:57:53;;;;;;;7.75;3.47;;;24.80;99.90;;;;;;5075491;28;20221;-80
2023/10/11 01:00:28;;;;;;;22.92;4.55;;;24.90;99.90;;;;;;5074553;28;20676;-83
2023/10/11 01:02:59;;;;;;;10.15;4.32;;;25.40;99.90;;;;;;5074024;28;20189;-79
2023/10/11 01:05:33;;;;;;;5.78;4.20;;;25.80;99.90;;;;;;5074558;28;20199;-81
2023/10/11 01:08:03;;;;;;;6.90;3.45;;;26.10;99.90;;;;;;5074208;28;20552;-83
2023/10/11 01:10:34;;;;;;;110.75;10.20;;;26.20;99.90;;;;;;5073346;28;20197;-80
2023/10/11 01:13:05;;;;;;;7.22;3.40;;;26.00;99.90;;;;;;5074246;28;20272;-81
2023/10/11 01:15:37;;;;;;;7.95;3.85;;;26.10;99.90;;;;;;5077412;28;20203;-84
2023/10/11 01:18:08;;;;;;;8.48;4.10;;;26.20;99.90;;;;;;5077985;28;20652;-84
2023/10/11 01:20:41;;;;;;;6.47;3.60;;;26.30;99.90;;;;;;5078028;28;20199;-85
2023/10/11 01:23:13;;;;;;;8.15;3.92;;;26.00;99.90;;;;;;5078298;28;20675;-84
2023/10/11 01:25:44;;;;;;;18.02;4.72;;;25.90;99.90;;;;;;5076176;28;20556;-84
2023/10/11 01:28:14;;;;;;;9.73;4.32;;;26.10;99.90;;;;;;5076375;28;20196;-82
2023/10/11 01:30:47;;;;;;;7.22;4.55;;;26.30;99.90;;;;;;5076209;28;20189;-84
2023/10/11 01:33:18;;;;;;;18.45;9.18;;;26.20;99.90;;;;;;5075931;28;20526;-88
2023/10/11 01:35:52;;;;;;;60.45;25.42;;;26.20;99.90;;;;;;5076450;28;20259;-82
2023/10/11 01:38:24;;;;;;;14.20;5.68;;;26.20;99.90;;;;;;5076617;28;20213;-80
2023/10/11 01:40:57;;;;;;;5.30;4.13;;;26.40;99.90;;;;;;5077195;28;20201;-85
2023/10/11 01:43:29;;;;;;;5.72;3.65;;;26.40;99.90;;;;;;5076623;28;20272;-85
2023/10/11 01:46:00;;;;;;;5.22;4.03;;;26.20;99.90;;;;;;5076605;28;20196;-85
2023/10/11 01:48:31;;;;;;;4.97;3.20;;;26.30;99.90;;;;;;5076172;28;20235;-82
2023/10/11 01:51:09;;;;;;;6.78;3.33;;;26.00;99.90;;;;;;5076994;28;20708;-84
2023/10/11 01:53:40;;;;;;;5.72;3.38;;;25.70;99.90;;;;;;5077055;28;20195;-82
2023/10/11 01:56:13;;;;;;;8.00;3.63;;;25.80;99.90;;;;;;5075561;28;20254;-79
2023/10/11 01:58:44;;;;;;;9.13;3.90;;;26.00;99.90;;;;;;5075527;28;20637;-81
2023/10/11 02:01:26;;;;;;;7.32;3.80;;;25.80;99.90;;;;;;5075539;28;20200;-80
2023/10/11 02:04:00;;;;;;;5.93;3.60;;;25.70;99.90;;;;;;5075629;28;20195;-81
2023/10/11 02:06:34;;;;;;;5.55;3.50;;;25.70;99.90;;;;;;5075660;28;20193;-79
2023/10/11 02:09:04;;;;;;;9.07;3.60;;;25.80;99.90;;;;;;5075046;28;20250;-79
2023/10/11 02:11:35;;;;;;;9.30;3.47;;;26.00;99.90;;;;;;5075764;28;20193;-83
2023/10/11 02:14:06;;;;;;;7.47;3.60;;;25.80;99.90;;;;;;5075386;28;20189;-82
2023/10/11 02:16:38;;;;;;;8.55;4.00;;;25.60;99.90;;;;;;5075342;28;20197;-78
2023/10/11 02:19:15;;;;;;;7.28;3.58;;;25.50;99.90;;;;;;5075275;28;20219;-77
2023/10/11 02:21:47;;;;;;;8.45;3.20;;;25.50;99.90;;;;;;5075126;28;20682;-79
2023/10/11 02:24:18;;;;;;;9.20;3.58;;;25.60;99.90;;;;;;5071912;28;20317;-82
2023/10/11 02:26:49;;;;;;;4.15;3.20;;;25.80;99.90;;;;;;5067224;28;20201;-83
2023/10/11 02:29:22;;;;;;;6.15;3.10;;;25.70;99.90;;;;;;5070910;28;20189;-81
2023/10/11 02:31:54;;;;;;;7.65;3.00;;;25.70;99.90;;;;;;5073419;28;20201;-78
2023/10/11 02:34:25;;;;;;;8.77;2.83;;;25.50;99.90;;;;;;5070238;28;20225;-80
2023/10/11 02:37:03;;;;;;;5.70;2.80;;;25.40;99.90;;;;;;5066997;28;20232;-80
2023/10/11 02:39:34;;;;;;;6.93;2.90;;;25.40;99.90;;;;;;5070597;28;20219;-81
2023/10/11 02:42:05;;;;;;;6.85;2.50;;;25.10;99.90;;;;;;5069807;28;20226;-80
2023/10/11 02:44:39;;;;;;;4.60;2.55;;;25.10;99.90;;;;;;5072426;28;20682;-82
2023/10/11 02:47:10;;;;;;;6.97;2.35;;;25.20;99.90;;;;;;5068202;28;20204;-77
2023/10/11 02:49:41;;;;;;;6.18;2.47;;;24.90;99.90;;;;;;5067092;28;20192;-80
2023/10/11 02:52:14;;;;;;;7.95;2.40;;;24.90;99.90;;;;;;5066816;28;20624;-78
2023/10/11 02:54:46;;;;;;;5.10;2.55;;;25.10;99.90;;;;;;5073750;28;20201;-80
2023/10/11 02:57:19;;;;;;;6.80;2.45;;;25.10;99.90;;;;;;5070649;28;20208;-82
2023/10/11 02:59:52;;;;;;;4.80;2.45;;;24.80;99.90;;;;;;5071159;28;20217;-82
2023/10/11 03:02:29;;;;;;;4.55;2.20;;;24.80;99.90;;;;;;5072615;28;20208;-82
2023/10/11 03:05:02;;;;;;;7.15;2.25;;;25.00;99.90;;;;;;5072132;28;20276;-80
2023/10/11 03:07:35;;;;;;;6.35;2.53;;;25.20;99.90;;;;;;5074782;28;20204;-84
2023/10/11 03:10:13;;;;;;;5.97;2.50;;;24.90;99.90;;;;;;5071288;28;20250;-82
2023/10/11 03:12:44;;;;;;;5.07;2.28;;;24.80;99.90;;;;;;5072613;28;20224;-83
2023/10/11 03:15:19;;;;;;;7.32;2.47;;;24.80;99.90;;;;;;5069518;28;20681;-83
2023/10/11 03:17:52;;;;;;;9.90;2.65;;;24.60;99.90;;;;;;5072016;28;20196;-86
2023/10/11 03:20:27;;;;;;;7.47;2.78;;;24.40;99.90;;;;;;5074530;28;20220;-82
2023/10/11 03:23:03;;;;;;;6.47;2.70;;;24.40;99.90;;;;;;5072257;28;20200;-82
2023/10/11 03:25:37;;;;;;;6.75;2.72;;;24.50;99.90;;;;;;5069278;28;20197;-82
2023/10/11 03:28:13;;;;;;;4.85;1.90;;;24.40;99.90;;;;;;5072763;28;20198;-81
2023/10/11 03:30:44;;;;;;;4.50;2.30;;;24.40;99.90;;;;;;5072526;28;20248;-86
2023/10/11 03:33:17;;;;;;;5.32;2.70;;;24.40;99.90;;;;;;5072839;28;20204;-81
2023/10/11 03:35:50;;;;;;;6.97;2.42;;;24.30;99.90;;;;;;5071353;28;20201;-86
2023/10/11 03:38:24;;;;;;;6.57;2.05;;;24.30;99.90;;;;;;5071143;28;20200;-82
2023/10/11 03:41:14;;;;;;;4.63;2.08;;;24.40;99.90;;;;;;5070773;28;20197;-82
2023/10/11 03:43:45;;;;;;;5.78;2.10;;;24.40;99.90;;;;;;5068801;28;20229;-83
2023/10/11 03:46:20;;;;;;;8.52;2.45;;;24.50;99.90;;;;;;5072874;28;20188;-86
2023/10/11 03:48:53;;;;;;;5.82;2.03;;;24.40;99.90;;;;;;5071353;28;20291;-85
2023/10/11 03:51:24;;;;;;;8.55;2.10;;;24.40;99.90;;;;;;5072286;28;20197;-82
2023/10/11 03:53:57;;;;;;;9.50;2.17;;;24.40;99.90;;;;;;5082883;28;20657;-82
2023/10/11 03:56:28;;;;;;;5.95;2.10;;;24.50;99.90;;;;;;5071577;28;20189;-86
2023/10/11 03:59:00;;;;;;;6.45;2.50;;;24.30;99.90;;;;;;5072389;28;20217;-82
2023/10/11 04:01:37;;;;;;;4.97;1.58;;;24.30;99.90;;;;;;5076410;28;20306;-84
2023/10/11 04:04:08;;;;;;;5.30;1.60;;;24.30;99.90;;;;;;5056840;28;20196;-83
2023/10/11 04:06:39;;;;;;;6.50;1.95;;;24.10;99.90;;;;;;5069582;28;20208;-82
2023/10/11 04:09:22;;;;;;;8.15;2.00;;;24.00;99.90;;;;;;5071358;28;20201;-81
2023/10/11 04:11:56;;;;;;;5.70;1.70;;;24.20;99.90;;;;;;5072242;28;20196;-84
2023/10/11 04:14:39;;;;;;;6.25;1.85;;;24.10;99.90;;;;;;5070886;28;20200;-80
2023/10/11 04:17:14;;;;;;;5.30;1.70;;;24.10;99.90;;;;;;5070927;28;20196;-84
2023/10/11 04:19:46;;;;;;;8.20;2.10;;;24.00;99.90;;;;;;5068464;28;20281;-85
2023/10/11 04:22:23;;;;;;;5.22;1.60;;;24.00;99.90;;;;;;5074458;28;20193;-76
2023/10/11 04:24:56;;;;;;;5.60;1.80;;;23.80;99.90;;;;;;5068700;28;20649;-76
2023/10/11 04:30:27;;;;;;;5.22;1.77;;;23.60;99.90;;;;;;5060843;28;20663;-84
2023/10/11 04:33:01;;;;;;;8.77;1.70;;;23.70;99.90;;;;;;5086026;28;20184;-86
2023/10/11 04:35:42;;;;;;;5.18;1.60;;;23.60;99.90;;;;;;5064313;28;20892;-84
2023/10/11 04:38:13;;;;;;;5.15;1.75;;;23.60;99.90;;;;;;5063889;28;20193;-82
2023/10/11 04:40:51;;;;;;;5.32;1.70;;;23.70;99.90;;;;;;5061171;28;20614;-81
2023/10/11 04:43:26;;;;;;;6.30;1.85;;;23.40;99.90;;;;;;5065131;28;20192;-84
2023/10/11 04:45:59;;;;;;;6.63;1.70;;;23.30;99.90;;;;;;5068261;28;20207;-83
2023/10/11 04:48:36;;;;;;;5.50;1.70;;;23.40;99.90;;;;;;5068562;28;20255;-82
2023/10/11 04:51:21;;;;;;;7.50;1.58;;;23.40;99.90;;;;;;5068842;28;20213;-82
2023/10/11 04:54:13;;;;;;;6.20;1.67;;;23.50;99.90;;;;;;5065899;28;20205;-79
2023/10/11 04:56:55;;;;;;;3.92;1.65;;;23.40;99.90;;;;;;5074704;28;20192;-85
2023/10/11 04:59:36;;;;;;;6.57;1.75;;;23.40;99.90;;;;;;5075821;28;20220;-78
2023/10/11 05:02:16;;;;;;;5.18;1.73;;;23.50;99.90;;;;;;5071956;28;20185;-79
2023/10/11 05:04:47;;;;;;;5.78;1.85;;;23.50;99.90;;;;;;5071763;28;20192;-81
2023/10/11 05:07:19;;;;;;;4.35;1.73;;;23.50;99.90;;;;;;5077783;28;20196;-79
2023/10/11 05:10:22;;;;;;;4.43;1.60;;;23.40;99.90;;;;;;5096521;28;20606;-81
2023/10/11 05:13:05;;;;;;;3.78;1.92;;;23.40;99.90;;;;;;5073605;28;20200;-82
2023/10/11 05:15:43;;;;;;;5.70;1.73;;;23.60;99.90;;;;;;5073839;28;20203;-82
2023/10/11 05:18:18;;;;;;;6.95;1.83;;;23.60;99.90;;;;;;5074837;28;20255;-81
2023/10/11 05:21:06;;;;;;;3.45;1.70;;;23.70;99.90;;;;;;5073952;28;20219;-78
2023/10/11 05:23:52;;;;;;;5.00;1.90;;;23.60;99.90;;;;;;5075199;28;20657;-79
2023/10/11 05:29:31;;;;;;;6.30;1.60;;;23.50;99.90;;;;;;5183748;27;21116;-81
2023/10/11 05:32:20;;;;;;;4.13;1.60;;;23.50;99.90;;;;;;5158589;27;20233;-80
2023/10/11 05:35:19;;;;;;;4.47;1.65;;;23.40;99.90;;;;;;5146678;27;20687;-79
2023/10/11 05:51:45;;;;;;;5.32;1.63;;;22.80;99.90;;;;;;5151305;27;20225;-79
2023/10/11 05:54:16;;;;;;;5.15;1.83;;;22.70;99.90;;;;;;5144140;27;20620;-81
2023/10/11 05:56:47;;;;;;;5.38;1.58;;;22.70;99.90;;;;;;5146336;27;20234;-76
2023/10/11 05:59:20;;;;;;;5.07;1.52;;;22.60;99.90;;;;;;5148472;27;20209;-79
2023/10/11 06:01:53;;;;;;;6.10;1.58;;;22.70;99.90;;;;;;5150861;27;20222;-74
2023/10/11 06:04:24;;;;;;;2.70;1.42;;;22.80;99.90;;;;;;5141454;27;20201;-76
2023/10/11 06:06:57;;;;;;;5.80;1.38;;;22.80;99.90;;;;;;5143243;27;20194;-84
2023/10/11 06:09:30;;;;;;;4.20;1.50;;;22.70;99.90;;;;;;5148653;27;20198;-76
2023/10/11 06:12:01;;;;;;;5.05;1.60;;;22.60;99.90;;;;;;5147664;27;20230;-76
2023/10/11 06:14:32;;;;;;;7.60;1.40;;;22.50;99.90;;;;;;5145529;27;20552;-79
2023/10/11 06:17:05;;;;;;;4.50;1.35;;;22.50;99.90;;;;;;5145397;27;20346;-81
2023/10/11 06:19:36;;;;;;;3.42;1.30;;;22.40;99.90;;;;;;5141508;27;20194;-83
2023/10/11 06:22:11;;;;;;;8.70;1.77;;;22.40;99.90;;;;;;5129316;27;20654;-83
2023/10/11 06:24:44;;;;;;;6.38;1.48;;;22.50;99.90;;;;;;5143374;27;20241;-82
2023/10/11 06:28:09;;;;;;;12.07;1.50;;;22.40;99.90;;;;;;5143773;27;20227;-78
2023/10/11 06:30:11;;;;;;;3.28;1.35;;;22.40;99.90;;;;;;5146599;27;20289;-76
2023/10/11 06:32:44;;;;;;;4.20;1.40;;;22.30;99.90;;;;;;5143894;27;20196;-76
2023/10/11 06:35:23;;;;;;;4.68;1.48;;;22.20;99.90;;;;;;5147216;27;20187;-77
2023/10/11 06:37:54;;;;;;;6.07;1.27;;;22.20;99.90;;;;;;5138015;27;20235;-76
2023/10/11 06:40:38;;;;;;;7.28;1.42;;;22.10;99.90;;;;;;5131537;27;20251;-76
2023/10/11 06:43:12;;;;;;;7.70;1.50;;;22.00;99.90;;;;;;5134660;27;20209;-76
2023/10/11 06:45:46;;;;;;;3.42;1.35;;;22.00;99.90;;;;;;5132584;27;20222;-81
2023/10/11 06:48:22;;;;;;;4.13;1.23;;;22.00;99.90;;;;;;5131649;27;20218;-81
2023/10/11 06:50:53;;;;;;;5.60;1.30;;;21.90;99.90;;;;;;5121417;27;20592;-80
2023/10/11 06:53:23;;;;;;;3.47;1.27;;;21.90;99.90;;;;;;5114574;27;20844;-79
2023/10/11 06:55:54;;;;;;;3.75;1.20;;;21.90;99.90;;;;;;5118556;27;20195;-79
2023/10/11 06:58:25;;;;;;;3.35;1.20;;;21.80;99.90;;;;;;5132779;27;20199;-81
2023/10/11 07:00:56;;;;;;;6.35;1.50;;;21.80;99.90;;;;;;5123742;27;20273;-82
2023/10/11 07:03:38;;;;;;;3.88;1.17;;;21.70;99.90;;;;;;5132410;27;20282;-79
2023/10/11 07:06:12;;;;;;;2.67;1.10;;;21.60;99.90;;;;;;5115786;27;20260;-80
2023/10/11 07:08:52;;;;;;;5.88;1.23;;;21.50;99.90;;;;;;5135304;27;20207;-84
2023/10/11 07:11:50;;;;;;;2.97;1.20;;;21.50;99.90;;;;;;5133349;27;20260;-84
2023/10/11 07:14:25;;;;;;;4.88;1.38;;;21.40;99.90;;;;;;5121333;27;20248;-77
2023/10/11 07:16:56;;;;;;;3.55;1.15;;;21.40;99.90;;;;;;5124151;27;20198;-79
2023/10/11 07:19:28;;;;;;;6.68;1.35;;;21.40;99.90;;;;;;5127125;27;20194;-81
2023/10/11 07:22:03;;;;;;;6.60;1.50;;;21.30;99.90;;;;;;5128103;27;20192;-74
2023/10/11 07:24:32;;;;;;;2.95;1.27;;;21.30;99.90;;;;;;5132523;27;20190;-81
2023/10/11 07:27:10;;;;;;;6.60;1.40;;;21.20;99.90;;;;;;5132284;27;20281;-80
2023/10/11 07:29:44;;;;;;;4.72;1.40;;;21.20;99.90;;;;;;5132748;27;20709;-83
2023/10/11 07:32:15;;;;;;;4.60;1.20;;;21.10;99.90;;;;;;5130667;27;20191;-82
2023/10/11 07:34:48;;;;;;;5.85;1.50;;;21.10;99.90;;;;;;5133643;27;20589;-83
2023/10/11 07:37:26;;;;;;;7.22;1.45;;;21.10;99.90;;;;;;5133494;27;20195;-79
2023/10/11 07:40:00;;;;;;;3.70;1.30;;;21.00;99.90;;;;;;5135320;27;20202;-81
2023/10/11 07:42:37;;;;;;;5.50;1.33;;;21.00;99.90;;;;;;5126400;27;20212;-84
2023/10/11 07:45:12;;;;;;;3.75;1.40;;;20.90;99.90;;;;;;5129877;27;20654;-82
2023/10/11 07:47:45;;;;;;;4.78;1.55;;;20.90;99.90;;;;;;5127739;27;20306;-82
2023/10/11 07:50:22;;;;;;;5.20;1.40;;;20.90;99.90;;;;;;5132503;27;20662;-81
2023/10/11 07:52:53;;;;;;;6.70;1.70;;;20.80;99.90;;;;;;5130088;27;20195;-81
2023/10/11 07:55:27;;;;;;;6.05;1.80;;;20.80;99.90;;;;;;5133050;27;20195;-82
2023/10/11 07:58:01;;;;;;;6.22;1.60;;;20.70;99.90;;;;;;5133269;27;20198;-83
2023/10/11 08:00:32;;;;;;;6.70;1.30;;;20.70;99.90;;;;;;5132318;27;20194;-77
2023/10/11 08:03:05;;;;;;;3.13;1.40;;;20.60;99.90;;;;;;5129170;27;20239;-83
2023/10/11 08:05:44;;;;;;;5.05;1.50;;;20.50;99.90;;;;;;5129566;27;20187;-77
2023/10/11 08:08:15;;;;;;;8.57;1.75;;;20.40;99.90;;;;;;5130319;27;20214;-82
2023/10/11 08:10:52;;;;;;;5.97;1.45;;;20.40;99.90;;;;;;5134368;27;20726;-78
2023/10/11 08:13:26;;;;;;;5.25;1.48;;;20.40;99.90;;;;;;5126657;27;20202;-77
2023/10/11 08:15:58;;;;;;;5.03;1.45;;;20.40;99.90;;;;;;5134270;27;20277;-80
2023/10/11 08:18:29;;;;;;;8.68;1.70;;;20.30;99.90;;;;;;5132808;27;20206;-79
2023/10/11 08:21:03;;;;;;;10.52;1.80;;;20.30;99.90;;;;;;5129109;27;20206;-80
2023/10/11 08:23:33;;;;;;;5.32;1.65;;;20.20;99.90;;;;;;5130088;27;20191;-78
2023/10/11 08:26:07;;;;;;;3.60;1.40;;;20.20;99.90;;;;;;5132112;27;20270;-75
2023/10/11 08:28:47;;;;;;;6.43;1.50;;;20.20;99.90;;;;;;5133522;27;20231;-80
2023/10/11 08:31:29;;;;;;;5.82;1.55;;;20.20;99.90;;;;;;5134348;27;20650;-79
2023/10/11 08:34:00;;;;;;;4.68;1.25;;;20.10;99.90;;;;;;5126406;27;20245;-76
2023/10/11 08:36:33;;;;;;;8.57;1.58;;;20.10;99.90;;;;;;5129701;27;20198;-77
2023/10/11 08:39:06;;;;;;;2.58;1.38;;;20.00;99.90;;;;;;5131924;27;20283;-75
2023/10/11 08:41:43;;;;;;;7.65;1.90;;;20.00;99.90;;;;;;5123507;27;20323;-78
2023/10/11 08:44:20;;;;;;;4.95;1.42;;;20.10;99.90;;;;;;5133889;27;20199;-77
2023/10/11 08:46:53;;;;;;;5.03;1.55;;;20.00;99.90;;;;;;5130616;27;20252;-80
2023/10/11 08:49:24;;;;;;;6.93;1.70;;;20.00;99.90;;;;;;5131044;27;20211;-79
2023/10/11 08:52:00;;;;;;;7.00;1.45;;;20.00;99.90;;;;;;5131264;27;20718;-80
2023/10/11 08:54:31;;;;;;;6.25;1.50;;;20.00;99.90;;;;;;5128540;27;20202;-77
2023/10/11 08:57:03;;;;;;;6.40;1.60;;;20.00;99.90;;;;;;5129772;27;20187;-78
2023/10/11 08:59:44;;;;;;;4.75;1.50;;;19.90;99.90;;;;;;5121680;27;20236;-78
2023/10/11 09:02:17;;;;;;;5.22;1.30;;;19.90;99.90;;;;;;5133017;27;20191;-80
2023/10/11 09:05:06;;;;;;;7.95;1.60;;;19.90;99.90;;;;;;5131678;27;20317;-79
2023/10/11 09:07:45;;;;;;;7.70;1.60;;;19.80;99.90;;;;;;5113122;28;20252;-79
2023/10/11 09:10:27;;;;;;;8.35;2.00;;;19.80;99.90;;;;;;5113813;27;20222;-76
2023/10/11 09:12:58;;;;;;;6.30;1.40;;;19.80;99.90;;;;;;5131034;27;20195;-77
2023/10/11 09:15:42;;;;;;;5.72;1.67;;;19.80;99.90;;;;;;5130146;27;20197;-80
2023/10/11 09:18:15;;;;;;;10.07;1.60;;;19.80;99.90;;;;;;5126041;27;20562;-76
2023/10/11 09:20:55;;;;;;;3.33;1.30;;;19.80;99.90;;;;;;5131825;27;20195;-80
2023/10/11 09:23:37;;;;;;;3.75;1.50;;;19.80;99.90;;;;;;5116117;27;20254;-78
2023/10/11 09:26:09;;;;;;;5.00;1.67;;;19.80;99.90;;;;;;5125852;28;20190;-79
2023/10/11 09:28:42;;;;;;;5.90;1.73;;;19.80;99.90;;;;;;5121771;27;20280;-79
2023/10/11 09:31:15;;;;;;;7.50;1.70;;;19.80;99.90;;;;;;5127766;27;20195;-79
2023/10/11 09:33:49;;;;;;;3.95;1.58;;;19.70;99.90;;;;;;5129178;27;20595;-77
2023/10/11 09:36:24;;;;;;;4.13;1.45;;;19.70;99.90;;;;;;5127316;27;20637;-79
2023/10/11 09:38:57;;;;;;;7.30;1.52;;;19.70;99.90;;;;;;5125158;28;20198;-76
2023/10/11 09:41:29;;;;;;;6.30;1.80;;;19.70;99.90;;;;;;5130289;27;20646;-80
2023/10/11 09:44:00;;;;;;;6.80;1.40;;;19.60;99.90;;;;;;5119035;27;20666;-78
2023/10/11 09:46:32;;;;;;;3.45;1.20;;;19.60;99.90;;;;;;5123126;28;20717;-78
2023/10/11 09:49:12;;;;;;;4.05;1.40;;;19.60;99.90;;;;;;5130651;28;20224;-78
2023/10/11 09:51:44;;;;;;;6.65;1.50;;;19.60;99.90;;;;;;5129420;27;20202;-82
2023/10/11 09:54:17;;;;;;;5.18;1.50;;;19.60;99.90;;;;;;5129472;27;20195;-81
2023/10/11 09:56:53;;;;;;;6.20;1.60;;;19.60;99.90;;;;;;5131698;28;20224;-81
2023/10/11 09:59:40;;;;;;;7.00;1.50;;;19.60;99.90;;;;;;5132422;27;20194;-80
2023/10/11 10:02:19;;;;;;;6.05;1.40;;;19.60;99.90;;;;;;5133479;27;20194;-78
2023/10/11 10:05:04;;;;;;;6.88;1.50;;;19.60;99.90;;;;;;5130139;27;20194;-79
2023/10/11 10:07:44;;;;;;;3.42;1.25;;;19.60;99.90;;;;;;5122543;27;20199;-81
2023/10/11 10:10:25;;;;;;;6.40;1.45;;;19.60;99.90;;;;;;5127400;27;20218;-77
2023/10/11 10:13:09;;;;;;;6.38;1.42;;;19.60;99.90;;;;;;5124716;27;20709;-79
2023/10/11 10:15:52;;;;;;;5.22;1.42;;;19.50;99.90;;;;;;5123392;27;20219;-78
2023/10/11 10:18:25;;;;;;;3.47;1.40;;;19.50;99.90;;;;;;5127482;27;20207;-80
2023/10/11 10:21:06;;;;;;;5.10;1.50;;;19.50;99.90;;;;;;5129466;27;20191;-82
2023/10/11 10:23:40;;;;;;;2.53;1.33;;;19.50;99.90;;;;;;5128787;27;20548;-82
2023/10/11 10:26:41;;;;;;;4.28;1.83;;;19.50;99.90;;;;;;5127059;27;20205;-80
2023/10/11 10:29:13;;;;;;;4.68;1.17;;;19.40;99.90;;;;;;5128957;27;20230;-80
2023/10/11 10:32:16;;;;;;;4.10;1.33;;;19.40;99.90;;;;;;5133650;27;20282;-80
2023/10/11 10:34:47;;;;;;;4.05;1.50;;;19.40;99.90;;;;;;5045396;28;20201;-81
2023/10/11 10:37:55;;;;;;;6.22;1.30;;;19.40;99.90;;;;;;5115823;27;20203;-77
2023/10/11 10:40:25;;;;;;;5.50;1.25;;;19.40;99.90;;;;;;5125838;27;20255;-80
2023/10/11 10:43:23;;;;;;;4.82;1.50;;;19.30;99.90;;;;;;5135809;27;20298;-82
2023/10/11 10:45:59;;;;;;;5.57;1.23;;;19.30;99.90;;;;;;5134315;27;20205;-80
2023/10/11 10:48:39;;;;;;;4.18;1.33;;;19.20;99.90;;;;;;5134987;27;20202;-79
2023/10/11 10:51:11;;;;;;;6.25;1.30;;;19.20;99.90;;;;;;5129797;27;20195;-79
2023/10/11 10:53:43;;;;;;;4.57;1.20;;;19.10;99.90;;;;;;5124626;27;20626;-78
2023/10/11 10:56:24;;;;;;;4.25;1.40;;;19.10;99.90;;;;;;5124493;27;20200;-79
2023/10/11 10:59:07;;;;;;;5.95;1.55;;;19.10;99.90;;;;;;5123325;27;20719;-80
2023/10/11 11:01:38;;;;;;;5.30;1.38;;;19.00;99.90;;;;;;5125650;27;20195;-79
2023/10/11 11:04:08;;;;;;;4.75;1.65;;;19.00;99.90;;;;;;5125655;27;20191;-80
2023/10/11 11:06:44;;;;;;;4.72;1.30;;;18.90;99.90;;;;;;5132827;27;20198;-81
2023/10/11 11:09:14;;;;;;;4.15;1.52;;;18.90;99.90;;;;;;5129108;27;20210;-81
2023/10/11 11:11:45;;;;;;;4.80;1.38;;;18.90;99.90;;;;;;5127868;27;20200;-80
2023/10/11 11:14:19;;;;;;;2.97;1.50;;;18.80;99.90;;;;;;5127838;27;20187;-80
2023/10/11 11:16:58;;;;;;;3.92;1.40;;;18.90;99.90;;;;;;5129006;27;20732;-80
2023/10/11 11:19:30;;;;;;;6.75;1.45;;;18.80;99.90;;;;;;5128039;27;20646;-80
2023/10/11 11:22:11;;;;;;;5.43;1.50;;;18.80;99.90;;;;;;5126014;27;20199;-81
2023/10/11 11:24:42;;;;;;;3.65;1.50;;;18.80;99.90;;;;;;5125885;27;20226;-80
2023/10/11 11:27:25;;;;;;;4.97;1.70;;;18.80;99.90;;;;;;5124600;27;20247;-81
2023/10/11 11:30:02;;;;;;;8.70;1.73;;;18.70;99.90;;;;;;5126715;27;20210;-79
2023/10/11 11:32:41;;;;;;;4.32;1.50;;;18.70;99.90;;;;;;5126965;27;20800;-79
2023/10/11 11:35:25;;;;;;;5.90;1.38;;;18.70;99.90;;;;;;5127157;27;20208;-80
2023/10/11 11:38:05;;;;;;;3.80;1.55;;;18.70;99.90;;;;;;5126729;27;20727;-81
2023/10/11 11:40:37;;;;;;;5.05;1.30;;;18.70;99.90;;;;;;5123844;27;20202;-79
2023/10/11 11:43:10;;;;;;;3.67;1.33;;;18.70;99.90;;;;;;5122316;27;20221;-79
2023/10/11 11:45:42;;;;;;;4.65;1.40;;;18.70;99.90;;;;;;5126445;27;20279;-79
2023/10/11 11:48:14;;;;;;;4.32;1.45;;;18.60;99.90;;;;;;5127704;27;20240;-80
2023/10/11 11:50:45;;;;;;;5.05;1.73;;;18.60;99.90;;;;;;5123989;27;20268;-80
2023/10/11 11:53:18;;;;;;;4.00;1.70;;;18.60;99.90;;;;;;5127012;27;20222;-80
2023/10/11 11:55:48;;;;;;;2.72;1.50;;;18.60;99.90;;;;;;5125099;27;20231;-79
2023/10/11 11:58:19;;;;;;;3.30;1.65;;;18.50;99.90;;;;;;5122965;27;20195;-79
2023/10/11 12:01:08;;;;;;;2.78;1.42;;;18.50;99.90;;;;;;5124747;27;20191;-81
2023/10/11 12:03:40;;;;;;;5.05;1.60;;;18.50;99.90;;;;;;5122823;27;20238;-79
2023/10/11 12:06:22;;;;;;;5.05;1.85;;;18.50;99.90;;;;;;5124705;27;20195;-79
2023/10/11 12:08:58;;;;;;;4.57;1.80;;;18.40;99.90;;;;;;5125285;27;20191;-80
2023/10/11 12:11:32;;;;;;;5.93;1.95;;;18.40;99.90;;;;;;5126009;27;20261;-79
2023/10/11 12:14:10;;;;;;;5.22;1.80;;;18.40;99.90;;;;;;5124479;27;20324;-80
2023/10/11 12:16:43;;;;;;;9.15;2.13;;;18.40;99.90;;;;;;5124057;27;20658;-79
2023/10/11 12:19:15;;;;;;;3.53;1.80;;;18.30;99.90;;;;;;5127106;27;20681;-79
2023/10/11 12:21:46;;;;;;;2.78;1.80;;;18.30;99.90;;;;;;5125493;27;20243;-80
2023/10/11 12:24:17;;;;;;;6.18;1.70;;;18.20;99.90;;;;;;5123027;27;20819;-80
2023/10/11 12:26:47;;;;;;;4.25;1.70;;;18.20;99.90;;;;;;5131941;27;20223;-80
2023/10/11 12:29:21;;;;;;;6.22;1.73;;;18.20;99.90;;;;;;5125813;27;20246;-80
2023/10/11 12:31:54;;;;;;;4.93;2.03;;;18.10;99.90;;;;;;5132865;27;20205;-79
2023/10/11 12:34:26;;;;;;;5.28;1.45;;;18.10;99.90;;;;;;5131623;27;20604;-79
2023/10/11 12:36:57;;;;;;;5.70;1.85;;;18.10;99.90;;;;;;5122863;27;20199;-79
2023/10/11 12:39:29;;;;;;;4.35;1.90;;;18.10;99.90;;;;;;5122187;27;20194;-79
2023/10/11 12:42:00;;;;;;;8.60;2.55;;;18.10;99.90;;;;;;5132813;27;20654;-80
2023/10/11 12:44:31;;;;;;;4.68;1.58;;;18.00;99.90;;;;;;5129245;27;20241;-79
2023/10/11 12:47:04;;;;;;;9.25;2.00;;;18.00;99.90;;;;;;5134514;27;20213;-78
2023/10/11 12:49:35;;;;;;;5.20;1.77;;;18.00;99.90;;;;;;5131791;27;20211;-77
2023/10/11 12:52:06;;;;;;;3.58;1.60;;;18.00;99.90;;;;;;5132646;27;20209;-77
2023/10/11 12:54:37;;;;;;;5.95;1.60;;;17.90;99.90;;;;;;5132592;27;20665;-77
2023/10/11 12:57:08;;;;;;;6.03;1.60;;;17.90;99.90;;;;;;5133597;27;20195;-77
2023/10/11 12:59:38;;;;;;;6.10;1.58;;;17.90;99.90;;;;;;5125081;27;20195;-78
2023/10/11 13:02:20;;;;;;;3.85;1.70;;;17.90;99.90;;;;;;5122893;27;20206;-78
2023/10/11 13:04:52;;;;;;;5.93;2.10;;;17.90;99.90;;;;;;5132380;27;20197;-76
2023/10/11 13:07:26;;;;;;;3.30;1.45;;;17.80;99.90;;;;;;5130774;27;20661;-77
2023/10/11 13:10:03;;;;;;;4.45;1.75;;;17.80;99.90;;;;;;5123807;27;20215;-76
2023/10/11 13:12:37;;;;;;;5.72;1.48;;;17.80;99.90;;;;;;5132587;27;21363;-76
2023/10/11 13:15:18;;;;;;;2.97;1.60;;;17.80;99.90;;;;;;5133353;27;20194;-78
2023/10/11 13:17:51;;;;;;;6.50;1.80;;;17.80;99.90;;;;;;5132969;27;20194;-75
2023/10/11 13:20:31;;;;;;;6.15;2.05;;;17.80;99.90;;;;;;5133432;27;20267;-78
2023/10/11 13:23:06;;;;;;;4.05;1.65;;;17.80;99.90;;;;;;5131972;27;20277;-75
2023/10/11 13:25:37;;;;;;;4.50;1.60;;;17.80;99.90;;;;;;5127808;27;20202;-78
2023/10/11 13:28:09;;;;;;;7.53;2.00;;;17.80;99.90;;;;;;5130906;28;20236;-76
2023/10/11 13:30:40;;;;;;;4.55;1.60;;;17.80;99.90;;;;;;5126939;27;20243;-75
2023/10/11 13:33:13;;;;;;;5.00;2.03;;;17.70;99.90;;;;;;5113483;28;20226;-75
2023/10/11 13:35:44;;;;;;;5.45;1.70;;;17.70;99.90;;;;;;5124567;28;20383;-78
2023/10/11 13:38:17;;;;;;;7.40;1.90;;;17.70;99.90;;;;;;5133229;27;20264;-76
2023/10/11 13:40:50;;;;;;;4.07;1.80;;;17.60;99.90;;;;;;5116236;28;20187;-78
2023/10/11 13:43:22;;;;;;;6.55;1.90;;;17.60;99.90;;;;;;5132699;27;20569;-77
2023/10/11 13:45:56;;;;;;;6.88;2.40;;;17.50;99.90;;;;;;5121756;28;20262;-76